sensor_id;sensor_type;location;lat;lon;timestamp;pressure;altitude;pressure_sealevel;temperature;humidity
36502;BME280;25393;46.108;3.390;2023-02-02T00:00:57;99381.72;;;5.15;85.28
36502;BME280;25393;46.108;3.390;2023-02-02T00:03:23;99361.75;;;4.99;86.39
36502;BME280;25393;46.108;3.390;2023-02-02T00:05:51;99369.56;;;5.14;86.54
36502;BME280;25393;46.108;3.390;2023-02-02T00:08:19;99358.66;;;4.93;87.99
36502;BME280;25393;46.108;3.390;2023-02-02T00:10:46;99357.72;;;4.94;88.27
36502;BME280;25393;46.108;3.390;2023-02-02T00:13:13;99351.25;;;4.99;88.63
36502;BME280;25393;46.108;3.390;2023-02-02T00:15:39;99355.53;;;5.00;88.80
36502;BME280;25393;46.108;3.390;2023-02-02T00:18:06;99329.75;;;4.93;87.91
36502;BME280;25393;46.108;3.390;2023-02-02T00:20:33;99350.06;;;5.03;88.52
36502;BME280;25393;46.108;3.390;2023-02-02T00:23:02;99358.41;;;5.10;87.79
36502;BME280;25393;46.108;3.390;2023-02-02T00:25:29;99356.50;;;5.12;87.18
36502;BME280;25393;46.108;3.390;2023-02-02T00:27:56;99357.13;;;5.16;87.46
36502;BME280;25393;46.108;3.390;2023-02-02T00:30:24;99357.47;;;5.24;86.17
36502;BME280;25393;46.108;3.390;2023-02-02T00:32:51;99346.19;;;5.22;86.06
36502;BME280;25393;46.108;3.390;2023-02-02T00:35:18;99353.25;;;5.21;86.24
36502;BME280;25393;46.108;3.390;2023-02-02T00:37:45;99346.41;;;5.19;85.84
36502;BME280;25393;46.108;3.390;2023-02-02T00:40:12;99346.72;;;5.14;85.25
36502;BME280;25393;46.108;3.390;2023-02-02T00:42:38;99333.16;;;5.08;85.43
36502;BME280;25393;46.108;3.390;2023-02-02T00:45:05;99348.94;;;5.20;84.89
36502;BME280;25393;46.108;3.390;2023-02-02T00:47:42;99349.16;;;5.30;84.77
36502;BME280;25393;46.108;3.390;2023-02-02T00:50:12;99353.03;;;5.24;84.41
36502;BME280;25393;46.108;3.390;2023-02-02T00:52:39;99339.59;;;5.16;85.04
36502;BME280;25393;46.108;3.390;2023-02-02T00:55:06;99364.94;;;5.30;86.30
36502;BME280;25393;46.108;3.390;2023-02-02T00:57:33;99361.88;;;5.23;87.76
36502;BME280;25393;46.108;3.390;2023-02-02T01:00:04;99350.81;;;5.18;88.09
36502;BME280;25393;46.108;3.390;2023-02-02T01:02:33;99333.56;;;5.01;88.29
36502;BME280;25393;46.108;3.390;2023-02-02T01:05:01;99340.31;;;5.06;87.88
36502;BME280;25393;46.108;3.390;2023-02-02T01:07:27;99352.81;;;5.02;89.16
36502;BME280;25393;46.108;3.390;2023-02-02T01:09:54;99341.22;;;4.92;88.22
36502;BME280;25393;46.108;3.390;2023-02-02T01:12:20;99347.06;;;4.83;89.22
36502;BME280;25393;46.108;3.390;2023-02-02T01:14:47;99362.63;;;4.86;90.77
36502;BME280;25393;46.108;3.390;2023-02-02T01:17:14;99323.19;;;4.61;91.91
36502;BME280;25393;46.108;3.390;2023-02-02T01:19:41;99362.84;;;4.83;92.02
36502;BME280;25393;46.108;3.390;2023-02-02T01:22:08;99348.69;;;4.85;91.39
36502;BME280;25393;46.108;3.390;2023-02-02T01:24:34;99354.47;;;4.90;91.83
36502;BME280;25393;46.108;3.390;2023-02-02T01:27:04;99345.84;;;4.88;91.89
36502;BME280;25393;46.108;3.390;2023-02-02T01:29:34;99350.56;;;4.83;92.70
36502;BME280;25393;46.108;3.390;2023-02-02T01:32:03;99359.28;;;4.96;92.05
36502;BME280;25393;46.108;3.390;2023-02-02T01:34:32;99351.53;;;4.95;91.92
36502;BME280;25393;46.108;3.390;2023-02-02T01:36:59;99344.72;;;4.92;92.34
36502;BME280;25393;46.108;3.390;2023-02-02T01:39:29;99340.59;;;4.88;92.54
36502;BME280;25393;46.108;3.390;2023-02-02T01:41:55;99346.28;;;4.95;91.93
36502;BME280;25393;46.108;3.390;2023-02-02T01:47:29;99339.31;;;4.81;91.95
36502;BME280;25393;46.108;3.390;2023-02-02T01:49:59;99348.03;;;4.82;92.03
36502;BME280;25393;46.108;3.390;2023-02-02T01:52:28;99353.81;;;4.87;91.90
36502;BME280;25393;46.108;3.390;2023-02-02T01:54:59;99365.81;;;4.91;91.91
36502;BME280;25393;46.108;3.390;2023-02-02T01:57:37;99354.38;;;4.92;92.02
36502;BME280;25393;46.108;3.390;2023-02-02T02:00:11;99349.00;;;4.93;92.56
36502;BME280;25393;46.108;3.390;2023-02-02T02:02:39;99349.13;;;4.92;92.74
36502;BME280;25393;46.108;3.390;2023-02-02T02:05:08;99338.91;;;4.87;91.92
36502;BME280;25393;46.108;3.390;2023-02-02T02:07:35;99333.00;;;4.84;91.58
36502;BME280;25393;46.108;3.390;2023-02-02T02:10:02;99347.97;;;4.96;92.03
36502;BME280;25393;46.108;3.390;2023-02-02T02:12:32;99344.06;;;4.89;92.95
36502;BME280;25393;46.108;3.390;2023-02-02T02:15:00;99350.97;;;4.90;92.85
36502;BME280;25393;46.108;3.390;2023-02-02T02:20:53;99349.97;;;4.92;92.15
36502;BME280;25393;46.108;3.390;2023-02-02T02:24:24;99342.59;;;4.97;91.35
36502;BME280;25393;46.108;3.390;2023-02-02T02:27:27;99340.59;;;5.01;90.97
36502;BME280;25393;46.108;3.390;2023-02-02T02:30:07;99346.16;;;4.96;91.74
36502;BME280;25393;46.108;3.390;2023-02-02T02:32:45;99342.50;;;4.99;91.56
36502;BME280;25393;46.108;3.390;2023-02-02T02:37:58;99344.16;;;5.00;91.42
36502;BME280;25393;46.108;3.390;2023-02-02T02:40:46;99341.44;;;5.01;91.20
36502;BME280;25393;46.108;3.390;2023-02-02T02:43:22;99334.19;;;5.05;90.85
36502;BME280;25393;46.108;3.390;2023-02-02T02:45:49;99324.53;;;5.06;90.33
36502;BME280;25393;46.108;3.390;2023-02-02T02:48:16;99331.88;;;5.00;90.99
36502;BME280;25393;46.108;3.390;2023-02-02T02:50:42;99332.00;;;4.99;91.34
36502;BME280;25393;46.108;3.390;2023-02-02T02:53:27;99321.88;;;4.93;91.19
36502;BME280;25393;46.108;3.390;2023-02-02T03:01:20;99321.44;;;4.86;91.82
36502;BME280;25393;46.108;3.390;2023-02-02T03:04:18;99337.47;;;4.96;91.71
36502;BME280;25393;46.108;3.390;2023-02-02T03:06:52;99317.97;;;4.86;91.98
36502;BME280;25393;46.108;3.390;2023-02-02T03:09:22;99322.72;;;4.93;91.04
36502;BME280;25393;46.108;3.390;2023-02-02T03:11:50;99313.78;;;4.83;91.12
36502;BME280;25393;46.108;3.390;2023-02-02T03:14:17;99324.41;;;4.94;92.96
36502;BME280;25393;46.108;3.390;2023-02-02T03:16:43;99330.09;;;4.88;92.91
36502;BME280;25393;46.108;3.390;2023-02-02T03:19:10;99313.34;;;4.89;91.86
36502;BME280;25393;46.108;3.390;2023-02-02T03:21:39;99325.69;;;4.89;91.90
36502;BME280;25393;46.108;3.390;2023-02-02T03:24:06;99329.84;;;4.79;91.88
36502;BME280;25393;46.108;3.390;2023-02-02T03:26:35;99334.13;;;4.67;93.34
36502;BME280;25393;46.108;3.390;2023-02-02T03:29:03;99329.47;;;4.58;94.90
36502;BME280;25393;46.108;3.390;2023-02-02T03:31:30;99324.91;;;4.74;94.99
36502;BME280;25393;46.108;3.390;2023-02-02T03:33:56;99329.88;;;4.91;93.72
36502;BME280;25393;46.108;3.390;2023-02-02T03:36:23;99339.53;;;4.78;94.01
36502;BME280;25393;46.108;3.390;2023-02-02T03:38:49;99314.34;;;4.62;95.83
36502;BME280;25393;46.108;3.390;2023-02-02T03:41:16;99323.84;;;4.77;94.98
36502;BME280;25393;46.108;3.390;2023-02-02T03:43:42;99312.47;;;4.64;95.21
36502;BME280;25393;46.108;3.390;2023-02-02T03:46:09;99315.75;;;4.67;94.19
36502;BME280;25393;46.108;3.390;2023-02-02T03:48:37;99324.69;;;4.77;93.30
36502;BME280;25393;46.108;3.390;2023-02-02T03:51:15;99327.38;;;4.63;94.00
36502;BME280;25393;46.108;3.390;2023-02-02T03:53:41;99314.34;;;4.62;94.79
36502;BME280;25393;46.108;3.390;2023-02-02T03:56:15;99325.34;;;4.54;96.81
36502;BME280;25393;46.108;3.390;2023-02-02T03:58:41;99325.75;;;4.48;97.80
36502;BME280;25393;46.108;3.390;2023-02-02T04:01:11;99327.00;;;4.42;97.50
36502;BME280;25393;46.108;3.390;2023-02-02T04:03:38;99340.72;;;4.33;99.73
36502;BME280;25393;46.108;3.390;2023-02-02T04:06:07;99335.56;;;4.32;99.15
36502;BME280;25393;46.108;3.390;2023-02-02T04:08:36;99329.97;;;4.24;99.09
36502;BME280;25393;46.108;3.390;2023-02-02T04:11:13;99332.16;;;4.17;100.00
36502;BME280;25393;46.108;3.390;2023-02-02T04:13:42;99329.72;;;4.14;100.00
36502;BME280;25393;46.108;3.390;2023-02-02T04:16:12;99319.63;;;4.08;100.00
36502;BME280;25393;46.108;3.390;2023-02-02T04:18:38;99329.03;;;4.25;100.00
36502;BME280;25393;46.108;3.390;2023-02-02T04:21:08;99336.06;;;4.24;100.00
36502;BME280;25393;46.108;3.390;2023-02-02T04:23:37;99343.50;;;4.18;100.00
36502;BME280;25393;46.108;3.390;2023-02-02T04:26:04;99354.81;;;4.32;100.00
36502;BME280;25393;46.108;3.390;2023-02-02T04:28:31;99362.34;;;4.37;100.00
36502;BME280;25393;46.108;3.390;2023-02-02T04:30:58;99356.47;;;4.33;100.00
36502;BME280;25393;46.108;3.390;2023-02-02T04:33:26;99358.25;;;4.33;100.00
36502;BME280;25393;46.108;3.390;2023-02-02T04:35:53;99359.84;;;4.35;100.00
36502;BME280;25393;46.108;3.390;2023-02-02T04:38:20;99357.97;;;4.37;100.00
36502;BME280;25393;46.108;3.390;2023-02-02T04:40:47;99359.59;;;4.52;100.00
36502;BME280;25393;46.108;3.390;2023-02-02T04:43:14;99353.78;;;4.47;100.00
36502;BME280;25393;46.108;3.390;2023-02-02T04:45:43;99360.97;;;4.31;100.00
36502;BME280;25393;46.108;3.390;2023-02-02T04:48:10;99356.91;;;4.40;100.00
36502;BME280;25393;46.108;3.390;2023-02-02T04:50:38;99351.59;;;4.54;100.00
36502;BME280;25393;46.108;3.390;2023-02-02T04:53:04;99353.53;;;4.65;99.84
36502;BME280;25393;46.108;3.390;2023-02-02T04:55:35;99352.66;;;4.51;100.00
36502;BME280;25393;46.108;3.390;2023-02-02T04:58:02;99348.69;;;4.59;100.00
36502;BME280;25393;46.108;3.390;2023-02-02T05:00:29;99359.31;;;4.57;100.00
36502;BME280;25393;46.108;3.390;2023-02-02T05:02:55;99356.69;;;4.57;100.00
36502;BME280;25393;46.108;3.390;2023-02-02T05:05:22;99359.47;;;4.54;100.00
36502;BME280;25393;46.108;3.390;2023-02-02T05:07:49;99359.00;;;4.62;100.00
36502;BME280;25393;46.108;3.390;2023-02-02T05:10:15;99345.91;;;4.47;100.00
36502;BME280;25393;46.108;3.390;2023-02-02T05:12:45;99372.44;;;4.57;100.00
36502;BME280;25393;46.108;3.390;2023-02-02T05:15:11;99369.69;;;4.59;100.00
36502;BME280;25393;46.108;3.390;2023-02-02T05:17:40;99361.38;;;4.52;100.00
36502;BME280;25393;46.108;3.390;2023-02-02T05:20:08;99371.41;;;4.60;100.00
36502;BME280;25393;46.108;3.390;2023-02-02T05:22:35;99374.03;;;4.60;100.00
36502;BME280;25393;46.108;3.390;2023-02-02T05:25:01;99375.81;;;4.59;100.00
36502;BME280;25393;46.108;3.390;2023-02-02T05:27:28;99376.25;;;4.66;100.00
36502;BME280;25393;46.108;3.390;2023-02-02T05:29:54;99356.22;;;4.50;99.43
36502;BME280;25393;46.108;3.390;2023-02-02T05:32:21;99374.47;;;4.39;100.00
36502;BME280;25393;46.108;3.390;2023-02-02T05:34:47;99376.03;;;4.42;100.00
36502;BME280;25393;46.108;3.390;2023-02-02T05:37:17;99385.06;;;4.38;100.00
36502;BME280;25393;46.108;3.390;2023-02-02T05:39:47;99367.53;;;4.38;100.00
36502;BME280;25393;46.108;3.390;2023-02-02T05:42:15;99391.91;;;4.67;100.00
36502;BME280;25393;46.108;3.390;2023-02-02T05:44:41;99373.97;;;4.74;98.98
36502;BME280;25393;46.108;3.390;2023-02-02T05:47:08;99386.06;;;4.76;96.73
36502;BME280;25393;46.108;3.390;2023-02-02T05:49:35;99389.72;;;4.74;97.02
36502;BME280;25393;46.108;3.390;2023-02-02T05:52:01;99394.47;;;4.54;98.57
36502;BME280;25393;46.108;3.390;2023-02-02T05:54:28;99403.72;;;4.33;100.00
36502;BME280;25393;46.108;3.390;2023-02-02T05:56:54;99400.63;;;4.27;100.00
36502;BME280;25393;46.108;3.390;2023-02-02T05:59:22;99382.28;;;4.13;100.00
36502;BME280;25393;46.108;3.390;2023-02-02T06:01:49;99414.16;;;4.21;100.00
36502;BME280;25393;46.108;3.390;2023-02-02T06:04:17;99398.50;;;4.19;100.00
36502;BME280;25393;46.108;3.390;2023-02-02T06:06:43;99397.28;;;4.25;100.00
36502;BME280;25393;46.108;3.390;2023-02-02T06:09:13;99404.81;;;4.43;100.00
36502;BME280;25393;46.108;3.390;2023-02-02T06:11:43;99417.69;;;4.34;100.00
36502;BME280;25393;46.108;3.390;2023-02-02T06:14:13;99413.69;;;4.28;100.00
36502;BME280;25393;46.108;3.390;2023-02-02T06:16:40;99391.38;;;4.21;100.00
36502;BME280;25393;46.108;3.390;2023-02-02T06:19:07;99419.56;;;4.32;100.00
36502;BME280;25393;46.108;3.390;2023-02-02T06:21:33;99412.56;;;4.32;100.00
36502;BME280;25393;46.108;3.390;2023-02-02T06:24:00;99420.13;;;4.37;100.00
36502;BME280;25393;46.108;3.390;2023-02-02T06:26:27;99426.00;;;4.40;100.00
36502;BME280;25393;46.108;3.390;2023-02-02T06:28:54;99418.94;;;4.28;100.00
36502;BME280;25393;46.108;3.390;2023-02-02T06:31:21;99425.47;;;4.35;100.00
36502;BME280;25393;46.108;3.390;2023-02-02T06:33:53;99423.78;;;4.34;100.00
36502;BME280;25393;46.108;3.390;2023-02-02T06:36:20;99430.91;;;4.46;100.00
36502;BME280;25393;46.108;3.390;2023-02-02T06:38:49;99443.91;;;4.48;100.00
36502;BME280;25393;46.108;3.390;2023-02-02T06:41:18;99423.06;;;4.32;100.00
36502;BME280;25393;46.108;3.390;2023-02-02T06:43:48;99432.91;;;4.29;100.00
36502;BME280;25393;46.108;3.390;2023-02-02T06:46:18;99424.38;;;4.25;100.00
36502;BME280;25393;46.108;3.390;2023-02-02T06:48:48;99444.69;;;4.36;100.00
36502;BME280;25393;46.108;3.390;2023-02-02T06:51:17;99430.28;;;4.29;100.00
36502;BME280;25393;46.108;3.390;2023-02-02T06:53:46;99432.13;;;4.27;100.00
36502;BME280;25393;46.108;3.390;2023-02-02T06:56:13;99429.13;;;4.19;100.00
36502;BME280;25393;46.108;3.390;2023-02-02T06:58:42;99439.81;;;4.16;100.00
36502;BME280;25393;46.108;3.390;2023-02-02T07:01:10;99459.50;;;4.37;100.00
36502;BME280;25393;46.108;3.390;2023-02-02T07:03:38;99443.19;;;4.32;100.00
36502;BME280;25393;46.108;3.390;2023-02-02T07:06:12;99469.44;;;4.46;100.00
36502;BME280;25393;46.108;3.390;2023-02-02T07:08:39;99454.81;;;4.42;100.00
36502;BME280;25393;46.108;3.390;2023-02-02T07:11:06;99466.63;;;4.49;100.00
36502;BME280;25393;46.108;3.390;2023-02-02T07:13:41;99454.03;;;4.40;100.00
36502;BME280;25393;46.108;3.390;2023-02-02T07:16:08;99461.75;;;4.43;100.00
36502;BME280;25393;46.108;3.390;2023-02-02T07:18:35;99443.41;;;4.29;100.00
36502;BME280;25393;46.108;3.390;2023-02-02T07:21:05;99468.47;;;4.47;100.00
36502;BME280;25393;46.108;3.390;2023-02-02T07:23:32;99471.03;;;4.48;100.00
36502;BME280;25393;46.108;3.390;2023-02-02T07:26:09;99459.78;;;4.46;100.00
36502;BME280;25393;46.108;3.390;2023-02-02T07:28:37;99439.63;;;4.33;100.00
36502;BME280;25393;46.108;3.390;2023-02-02T07:31:20;99477.97;;;4.49;100.00
36502;BME280;25393;46.108;3.390;2023-02-02T07:33:51;99472.72;;;4.49;100.00
36502;BME280;25393;46.108;3.390;2023-02-02T07:36:22;99476.63;;;4.57;100.00
36502;BME280;25393;46.108;3.390;2023-02-02T07:38:51;99480.94;;;4.58;100.00
36502;BME280;25393;46.108;3.390;2023-02-02T07:41:23;99471.59;;;4.53;100.00
36502;BME280;25393;46.108;3.390;2023-02-02T07:43:50;99444.03;;;4.46;100.00
36502;BME280;25393;46.108;3.390;2023-02-02T07:46:18;99476.00;;;4.53;100.00
36502;BME280;25393;46.108;3.390;2023-02-02T07:48:45;99459.88;;;4.45;100.00
36502;BME280;25393;46.108;3.390;2023-02-02T07:51:18;99467.81;;;4.58;100.00
36502;BME280;25393;46.108;3.390;2023-02-02T07:53:47;99466.50;;;4.50;100.00
36502;BME280;25393;46.108;3.390;2023-02-02T07:56:19;99458.72;;;4.63;100.00
36502;BME280;25393;46.108;3.390;2023-02-02T07:58:49;99474.34;;;4.65;100.00
36502;BME280;25393;46.108;3.390;2023-02-02T08:01:19;99467.44;;;4.64;100.00
36502;BME280;25393;46.108;3.390;2023-02-02T08:03:49;99473.13;;;4.70;100.00
36502;BME280;25393;46.108;3.390;2023-02-02T08:06:26;99472.16;;;4.85;100.00
36502;BME280;25393;46.108;3.390;2023-02-02T08:08:58;99475.75;;;4.97;100.00
36502;BME280;25393;46.108;3.390;2023-02-02T08:11:26;99467.56;;;4.89;100.00
36502;BME280;25393;46.108;3.390;2023-02-02T08:13:56;99478.72;;;4.92;100.00
36502;BME280;25393;46.108;3.390;2023-02-02T08:16:24;99473.78;;;5.00;100.00
36502;BME280;25393;46.108;3.390;2023-02-02T08:18:51;99450.47;;;5.09;100.00
36502;BME280;25393;46.108;3.390;2023-02-02T08:21:18;99446.28;;;5.06;100.00
36502;BME280;25393;46.108;3.390;2023-02-02T08:23:48;99475.13;;;5.20;100.00
36502;BME280;25393;46.108;3.390;2023-02-02T08:28:50;99456.19;;;5.15;100.00
36502;BME280;25393;46.108;3.390;2023-02-02T08:31:20;99469.47;;;5.39;100.00
36502;BME280;25393;46.108;3.390;2023-02-02T08:33:47;99459.94;;;5.38;100.00
36502;BME280;25393;46.108;3.390;2023-02-02T08:36:16;99472.38;;;5.61;100.00
36502;BME280;25393;46.108;3.390;2023-02-02T08:38:44;99465.97;;;5.65;100.00
36502;BME280;25393;46.108;3.390;2023-02-02T08:41:14;99474.81;;;6.02;100.00
36502;BME280;25393;46.108;3.390;2023-02-02T08:43:46;99478.41;;;5.88;100.00
36502;BME280;25393;46.108;3.390;2023-02-02T08:46:17;99478.69;;;5.71;98.69
36502;BME280;25393;46.108;3.390;2023-02-02T08:48:46;99443.31;;;5.50;98.94
36502;BME280;25393;46.108;3.390;2023-02-02T08:51:18;99439.91;;;5.35;100.00
36502;BME280;25393;46.108;3.390;2023-02-02T08:53:50;99467.25;;;5.33;100.00
36502;BME280;25393;46.108;3.390;2023-02-02T08:56:19;99492.28;;;5.38;100.00
36502;BME280;25393;46.108;3.390;2023-02-02T08:58:51;99484.97;;;5.43;100.00
36502;BME280;25393;46.108;3.390;2023-02-02T09:01:23;99469.03;;;5.20;100.00
36502;BME280;25393;46.108;3.390;2023-02-02T09:03:55;99464.94;;;5.28;100.00
36502;BME280;25393;46.108;3.390;2023-02-02T09:06:36;99482.47;;;5.54;100.00
36502;BME280;25393;46.108;3.390;2023-02-02T09:09:04;99485.22;;;5.66;100.00
36502;BME280;25393;46.108;3.390;2023-02-02T09:11:31;99495.94;;;5.63;100.00
36502;BME280;25393;46.108;3.390;2023-02-02T09:13:59;99499.41;;;5.63;100.00
36502;BME280;25393;46.108;3.390;2023-02-02T09:16:27;99516.69;;;5.80;100.00
36502;BME280;25393;46.108;3.390;2023-02-02T09:18:55;99487.31;;;5.61;100.00
36502;BME280;25393;46.108;3.390;2023-02-02T09:21:23;99467.75;;;5.52;100.00
36502;BME280;25393;46.108;3.390;2023-02-02T09:23:51;99522.47;;;5.72;100.00
36502;BME280;25393;46.108;3.390;2023-02-02T09:26:22;99495.63;;;5.67;100.00
36502;BME280;25393;46.108;3.390;2023-02-02T09:28:53;99537.16;;;5.89;100.00
36502;BME280;25393;46.108;3.390;2023-02-02T09:31:21;99522.84;;;5.93;99.21
36502;BME280;25393;46.108;3.390;2023-02-02T09:33:48;99523.25;;;5.99;98.65
36502;BME280;25393;46.108;3.390;2023-02-02T09:36:20;99528.66;;;6.11;99.60
36502;BME280;25393;46.108;3.390;2023-02-02T09:38:49;99534.44;;;6.16;98.83
36502;BME280;25393;46.108;3.390;2023-02-02T09:46:57;99544.34;;;6.50;95.10
36502;BME280;25393;46.108;3.390;2023-02-02T09:49:50;99549.16;;;6.56;94.76
36502;BME280;25393;46.108;3.390;2023-02-02T09:52:28;99559.25;;;6.62;92.44
36502;BME280;25393;46.108;3.390;2023-02-02T09:55:03;99529.44;;;6.62;92.14
36502;BME280;25393;46.108;3.390;2023-02-02T09:57:38;99552.63;;;6.69;91.27
36502;BME280;25393;46.108;3.390;2023-02-02T10:00:24;99561.16;;;6.73;90.50
36502;BME280;25393;46.108;3.390;2023-02-02T10:02:57;99554.91;;;6.86;91.26
36502;BME280;25393;46.108;3.390;2023-02-02T10:05:34;99553.59;;;7.04;92.38
36502;BME280;25393;46.108;3.390;2023-02-02T10:08:10;99554.72;;;7.13;91.92
36502;BME280;25393;46.108;3.390;2023-02-02T10:10:59;99534.25;;;7.17;90.02
36502;BME280;25393;46.108;3.390;2023-02-02T10:13:31;99547.97;;;7.45;89.54
36502;BME280;25393;46.108;3.390;2023-02-02T10:16:15;99544.53;;;7.67;87.90
36502;BME280;25393;46.108;3.390;2023-02-02T10:19:03;99556.88;;;7.90;87.08
36502;BME280;25393;46.108;3.390;2023-02-02T10:24:21;99541.28;;;8.33;84.91
36502;BME280;25393;46.108;3.390;2023-02-02T10:26:56;99551.00;;;8.66;82.14
36502;BME280;25393;46.108;3.390;2023-02-02T10:32:23;99548.50;;;8.76;79.37
36502;BME280;25393;46.108;3.390;2023-02-02T10:46:04;99535.84;;;8.90;77.43
36502;BME280;25393;46.108;3.390;2023-02-02T10:48:33;99536.88;;;9.21;76.02
36502;BME280;25393;46.108;3.390;2023-02-02T10:51:11;99540.47;;;9.31;73.96
36502;BME280;25393;46.108;3.390;2023-02-02T10:53:42;99532.69;;;9.50;73.61
36502;BME280;25393;46.108;3.390;2023-02-02T10:56:21;99532.03;;;9.58;71.60
36502;BME280;25393;46.108;3.390;2023-02-02T11:01:24;99530.84;;;9.30;72.00
36502;BME280;25393;46.108;3.390;2023-02-02T11:03:50;99502.03;;;9.05;71.89
36502;BME280;25393;46.108;3.390;2023-02-02T11:06:39;99502.50;;;9.10;73.03
36502;BME280;25393;46.108;3.390;2023-02-02T11:09:22;99542.72;;;9.36;73.24
36502;BME280;25393;46.108;3.390;2023-02-02T11:11:54;99547.53;;;9.42;72.98
36502;BME280;25393;46.108;3.390;2023-02-02T11:14:44;99527.59;;;9.27;72.02
36502;BME280;25393;46.108;3.390;2023-02-02T11:17:23;99513.69;;;9.14;73.00
36502;BME280;25393;46.108;3.390;2023-02-02T11:19:54;99528.59;;;9.46;72.44
36502;BME280;25393;46.108;3.390;2023-02-02T11:22:30;99524.84;;;9.60;71.96
36502;BME280;25393;46.108;3.390;2023-02-02T11:25:25;99534.34;;;9.83;72.00
36502;BME280;25393;46.108;3.390;2023-02-02T11:27:52;99522.22;;;10.01;69.80
36502;BME280;25393;46.108;3.390;2023-02-02T11:30:46;99510.47;;;10.15;69.26
36502;BME280;25393;46.108;3.390;2023-02-02T11:33:28;99505.63;;;10.20;70.18
36502;BME280;25393;46.108;3.390;2023-02-02T11:35:56;99511.13;;;10.38;68.12
36502;BME280;25393;46.108;3.390;2023-02-02T11:38:23;99522.19;;;10.43;67.55
36502;BME280;25393;46.108;3.390;2023-02-02T11:43:30;99498.91;;;10.16;66.91
36502;BME280;25393;46.108;3.390;2023-02-02T11:46:02;99514.38;;;9.79;68.58
36502;BME280;25393;46.108;3.390;2023-02-02T11:48:35;99518.88;;;9.68;68.79
36502;BME280;25393;46.108;3.390;2023-02-02T11:51:04;99517.84;;;9.59;68.68
36502;BME280;25393;46.108;3.390;2023-02-02T11:53:37;99485.25;;;9.27;68.47
36502;BME280;25393;46.108;3.390;2023-02-02T11:56:16;99495.44;;;9.11;68.20
36502;BME280;25393;46.108;3.390;2023-02-02T12:01:28;99515.25;;;9.16;69.72
36502;BME280;25393;46.108;3.390;2023-02-02T12:04:00;99503.06;;;9.57;72.19
36502;BME280;25393;46.108;3.390;2023-02-02T12:06:37;99473.09;;;10.48;66.42
36502;BME280;25393;46.108;3.390;2023-02-02T12:09:24;99493.28;;;11.29;63.01
36502;BME280;25393;46.108;3.390;2023-02-02T12:12:08;99506.97;;;11.44;62.13
36502;BME280;25393;46.108;3.390;2023-02-02T12:27:51;99516.63;;;8.77;73.34
36502;BME280;25393;46.108;3.390;2023-02-02T12:44:19;99483.06;;;10.05;70.74
36502;BME280;25393;46.108;3.390;2023-02-02T12:47:28;99451.97;;;10.07;70.46
36502;BME280;25393;46.108;3.390;2023-02-02T12:58:26;99471.22;;;9.68;70.01
36502;BME280;25393;46.108;3.390;2023-02-02T13:04:43;99482.09;;;9.33;71.11
36502;BME280;25393;46.108;3.390;2023-02-02T13:07:27;99476.66;;;9.14;73.35
36502;BME280;25393;46.108;3.390;2023-02-02T13:10:06;99482.56;;;9.06;74.48
36502;BME280;25393;46.108;3.390;2023-02-02T13:12:40;99475.00;;;9.01;75.91
36502;BME280;25393;46.108;3.390;2023-02-02T13:15:13;99475.81;;;9.13;74.92
36502;BME280;25393;46.108;3.390;2023-02-02T13:17:45;99467.94;;;9.23;72.43
36502;BME280;25393;46.108;3.390;2023-02-02T13:22:46;99452.69;;;9.15;72.01
36502;BME280;25393;46.108;3.390;2023-02-02T13:25:29;99464.03;;;9.17;70.34
36502;BME280;25393;46.108;3.390;2023-02-02T13:28:00;99473.69;;;8.96;71.85
36502;BME280;25393;46.108;3.390;2023-02-02T13:30:35;99469.13;;;8.87;73.53
36502;BME280;25393;46.108;3.390;2023-02-02T13:33:16;99472.16;;;8.82;74.04
36502;BME280;25393;46.108;3.390;2023-02-02T13:35:54;99472.78;;;8.75;74.09
36502;BME280;25393;46.108;3.390;2023-02-02T13:38:28;99476.03;;;8.67;73.83
36502;BME280;25393;46.108;3.390;2023-02-02T13:41:01;99482.28;;;8.66;73.29
36502;BME280;25393;46.108;3.390;2023-02-02T13:43:45;99478.81;;;8.55;75.07
36502;BME280;25393;46.108;3.390;2023-02-02T14:00:13;99492.16;;;8.64;72.17
36502;BME280;25393;46.108;3.390;2023-02-02T14:02:58;99478.31;;;8.72;73.36
36502;BME280;25393;46.108;3.390;2023-02-02T14:05:30;99467.75;;;8.61;73.27
36502;BME280;25393;46.108;3.390;2023-02-02T14:08:02;99485.66;;;8.79;73.38
36502;BME280;25393;46.108;3.390;2023-02-02T14:16:21;99489.16;;;8.69;72.94
36502;BME280;25393;46.108;3.390;2023-02-02T14:18:53;99494.63;;;8.77;72.96
36502;BME280;25393;46.108;3.390;2023-02-02T14:24:01;99496.91;;;8.92;70.99
36502;BME280;25393;46.108;3.390;2023-02-02T14:26:47;99485.84;;;8.87;69.74
36502;BME280;25393;46.108;3.390;2023-02-02T14:32:27;99497.88;;;8.80;66.74
36502;BME280;25393;46.108;3.390;2023-02-02T14:37:58;99510.28;;;8.69;68.14
36502;BME280;25393;46.108;3.390;2023-02-02T14:40:46;99513.28;;;8.53;68.97
36502;BME280;25393;46.108;3.390;2023-02-02T14:43:21;99522.16;;;8.41;68.76
36502;BME280;25393;46.108;3.390;2023-02-02T14:48:42;99525.88;;;8.38;69.60
36502;BME280;25393;46.108;3.390;2023-02-02T14:51:21;99529.13;;;8.42;69.70
36502;BME280;25393;46.108;3.390;2023-02-02T14:53:58;99493.66;;;8.11;69.87
36502;BME280;25393;46.108;3.390;2023-02-02T14:56:42;99485.72;;;8.00;70.06
36502;BME280;25393;46.108;3.390;2023-02-02T14:59:29;99519.84;;;8.14;69.84
36502;BME280;25393;46.108;3.390;2023-02-02T15:02:07;99530.88;;;8.08;71.03
36502;BME280;25393;46.108;3.390;2023-02-02T15:04:37;99522.09;;;7.96;70.78
36502;BME280;25393;46.108;3.390;2023-02-02T15:09:56;99531.69;;;7.97;71.63
36502;BME280;25393;46.108;3.390;2023-02-02T15:12:30;99531.69;;;7.97;71.45
36502;BME280;25393;46.108;3.390;2023-02-02T15:15:24;99540.91;;;7.92;72.33
36502;BME280;25393;46.108;3.390;2023-02-02T15:18:05;99539.31;;;7.78;72.60
36502;BME280;25393;46.108;3.390;2023-02-02T15:20:45;99530.69;;;7.76;72.98
36502;BME280;25393;46.108;3.390;2023-02-02T15:23:23;99534.19;;;7.88;73.14
36502;BME280;25393;46.108;3.390;2023-02-02T15:26:00;99533.09;;;7.79;72.88
36502;BME280;25393;46.108;3.390;2023-02-02T15:28:37;99542.84;;;7.90;72.57
36502;BME280;25393;46.108;3.390;2023-02-02T15:34:03;99544.00;;;7.86;73.16
36502;BME280;25393;46.108;3.390;2023-02-02T15:36:40;99545.72;;;7.87;73.72